Time;durP1;ratioP1;P1;durP2;ratioP2;P2;SDS_P1;SDS_P2;PMS_P1;PMS_P2;Temp;Humidity;BMP_temperature;BMP_pressure;BME280_temperature;BME280_humidity;BME280_pressure;Samples;Min_cycle;Max_cycle;Signal;HPM_P1;HPM_P2
2022/05/28 00:01:14;;;;;;;17.58;2.30;;;;;;;10.01;100.00;101836.09;5026367;28;20402;-86
2022/05/28 00:03:44;;;;;;;14.48;2.53;;;;;;;9.95;100.00;101839.50;5029606;28;20045;-86
2022/05/28 00:06:20;;;;;;;9.60;2.08;;;;;;;9.91;100.00;101831.50;5021568;28;20041;-83
2022/05/28 00:08:49;;;;;;;7.85;2.58;;;;;;;9.89;100.00;101838.50;5003059;28;20410;-84
2022/05/28 00:11:20;;;;;;;12.52;2.45;;;;;;;9.85;100.00;101827.00;5030294;28;20045;-84
2022/05/28 00:13:50;;;;;;;11.32;2.30;;;;;;;9.84;100.00;101826.97;5038600;28;20513;-84
2022/05/28 00:16:19;;;;;;;13.33;2.73;;;;;;;9.81;100.00;101827.81;4991585;28;20052;-84
2022/05/28 00:18:51;;;;;;;16.23;2.92;;;;;;;9.80;100.00;101835.66;5050782;28;20053;-83
2022/05/28 00:21:22;;;;;;;14.63;2.75;;;;;;;9.78;100.00;101826.84;4994272;28;20041;-84
2022/05/28 00:23:52;;;;;;;15.52;2.85;;;;;;;9.78;100.00;101824.22;5033411;28;20056;-85
2022/05/28 00:26:20;;;;;;;15.95;2.17;;;;;;;9.76;100.00;101827.69;4990332;28;20040;-83
2022/05/28 00:28:50;;;;;;;9.48;2.30;;;;;;;9.75;100.00;101831.19;5027234;28;20040;-85
2022/05/28 00:31:18;;;;;;;10.18;2.00;;;;;;;9.72;100.00;101825.84;5001199;28;20048;-83
2022/05/28 00:33:47;;;;;;;7.60;1.75;;;;;;;9.72;100.00;101817.06;5002110;28;20406;-83
2022/05/28 00:36:16;;;;;;;15.63;2.40;;;;;;;9.72;100.00;101824.97;5025507;28;20032;-84
2022/05/28 00:38:46;;;;;;;10.40;3.22;;;;;;;9.71;100.00;101810.00;5037350;28;20029;-84
2022/05/28 00:41:15;;;;;;;10.90;2.85;;;;;;;9.74;100.00;101825.88;5033548;28;20049;-84
2022/05/28 00:43:45;;;;;;;10.93;2.17;;;;;;;9.74;100.00;101826.75;5016513;28;20041;-83
2022/05/28 00:46:22;;;;;;;12.93;2.80;;;;;;;9.75;100.00;101831.19;5038777;28;20040;-83
2022/05/28 00:48:58;;;;;;;8.65;2.30;;;;;;;9.76;100.00;101832.94;5022604;28;20044;-84
2022/05/28 00:51:32;;;;;;;10.60;2.63;;;;;;;9.78;100.00;101832.09;5017999;28;20040;-84
2022/05/28 00:54:04;;;;;;;9.40;2.72;;;;;;;9.75;100.00;101831.19;5032729;28;20040;-84
2022/05/28 00:56:33;;;;;;;10.98;2.58;;;;;;;9.76;100.00;101829.44;5039511;28;20049;-84
2022/05/28 00:59:01;;;;;;;9.10;2.00;;;;;;;9.73;100.00;101824.09;5009855;28;20222;-83
2022/05/28 01:01:33;;;;;;;10.02;2.25;;;;;;;9.73;100.00;101821.47;5027038;28;20517;-84
2022/05/28 01:04:25;;;;;;;11.82;2.55;;;;;;;9.74;100.00;101823.25;5029504;28;20691;-84
2022/05/28 01:07:16;;;;;;;8.90;2.00;;;;;;;9.73;100.00;101829.34;5021367;28;20333;-85
2022/05/28 01:09:57;;;;;;;10.80;2.45;;;;;;;9.72;100.00;101820.56;5008335;28;20037;-85
2022/05/28 01:12:47;;;;;;;10.32;2.65;;;;;;;9.72;100.00;101822.31;5036640;28;20044;-83
2022/05/28 01:15:42;;;;;;;10.68;2.80;;;;;;;9.70;100.00;101821.41;5013427;28;20029;-84
2022/05/28 01:18:21;;;;;;;9.25;2.60;;;;;;;9.71;100.00;101828.44;5037990;28;20041;-84
2022/05/28 01:20:54;;;;;;;15.48;2.75;;;;;;;9.73;100.00;101825.00;5031039;28;20529;-84
2022/05/28 01:23:35;;;;;;;8.98;2.35;;;;;;;9.76;100.00;101822.41;5013355;28;20042;-83
2022/05/28 01:26:32;;;;;;;21.45;2.60;;;;;;;9.79;100.00;101828.59;4991190;28;20271;-83
2022/05/28 01:29:07;;;;;;;13.10;2.42;;;;;;;9.80;100.00;101820.75;4995785;28;20266;-83
2022/05/28 01:31:36;;;;;;;10.50;3.47;;;;;;;9.80;100.00;101828.63;4973936;28;20053;-84
2022/05/28 01:34:07;;;;;;;11.07;2.58;;;;;;;9.81;100.00;101826.88;5006908;28;20274;-84
2022/05/28 01:36:38;;;;;;;12.25;2.97;;;;;;;9.81;100.00;101817.28;4978624;28;20037;-84
2022/05/28 01:39:07;;;;;;;15.90;3.00;;;;;;;9.83;100.00;101826.09;5009200;28;20057;-84
2022/05/28 01:41:38;;;;;;;12.15;2.40;;;;;;;9.85;100.00;101831.34;4995443;28;20411;-84
2022/05/28 01:44:13;;;;;;;14.27;3.15;;;;;;;9.90;100.00;101819.19;4978313;28;20049;-83
2022/05/28 01:46:44;;;;;;;12.27;2.25;;;;;;;9.89;100.00;101826.22;4988319;28;20034;-85
2022/05/28 01:49:17;;;;;;;18.23;2.47;;;;;;;9.88;100.00;101826.16;4990012;28;20058;-83
2022/05/28 01:51:58;;;;;;;10.07;2.75;;;;;;;9.87;100.00;101816.50;4983896;28;20057;-83
2022/05/28 01:54:29;;;;;;;;;;;;;;;9.84;100.00;101824.34;4994577;28;20049;-83
2022/05/28 01:56:57;;;;;;;13.32;2.67;;;;;;;9.78;100.00;101813.69;5002759;28;20046;-83
2022/05/28 01:59:28;;;;;;;16.15;3.20;;;;;;;9.74;100.00;101812.72;5017230;28;20046;-84
2022/05/28 02:01:58;;;;;;;12.32;3.10;;;;;;;9.73;100.00;101811.84;4987847;28;20066;-84
2022/05/28 02:04:30;;;;;;;16.35;3.85;;;;;;;9.73;100.00;101816.19;4987998;28;20056;-84
2022/05/28 02:06:58;;;;;;;12.68;2.40;;;;;;;9.71;100.00;101810.88;4979842;28;20057;-84
2022/05/28 02:09:32;;;;;;;10.88;2.97;;;;;;;9.71;100.00;101815.28;5008904;28;20633;-84
2022/05/28 02:12:16;;;;;;;15.43;3.15;;;;;;;9.71;100.00;101818.78;5000563;28;20350;-83
2022/05/28 02:15:03;;;;;;;15.18;3.03;;;;;;;9.75;100.00;101812.75;5006078;28;20042;-83
2022/05/28 02:17:49;;;;;;;17.73;3.70;;;;;;;9.79;100.00;101815.44;4976474;28;20041;-84
2022/05/28 02:20:17;;;;;;;15.82;2.95;;;;;;;9.79;100.00;101816.31;5001774;28;20535;-84
2022/05/28 02:23:11;;;;;;;16.02;2.80;;;;;;;9.83;100.00;101827.81;5016516;28;20514;-83
2022/05/28 02:25:50;;;;;;;13.85;3.08;;;;;;;9.85;100.00;101812.94;5008262;28;20521;-84
2022/05/28 02:28:23;;;;;;;14.90;3.15;;;;;;;9.88;100.00;101823.53;5026927;28;20041;-83
2022/05/28 02:31:01;;;;;;;14.88;3.58;;;;;;;9.90;100.00;101825.34;5011288;28;20041;-83
2022/05/28 02:33:32;;;;;;;11.73;2.78;;;;;;;9.95;100.00;101818.44;5011381;28;20045;-84
2022/05/28 02:36:00;;;;;;;18.60;3.33;;;;;;;9.96;100.00;101806.16;5010938;28;20038;-83
2022/05/28 02:38:29;;;;;;;15.07;3.38;;;;;;;9.97;100.00;101809.69;5031572;28;20032;-84
2022/05/28 02:40:59;;;;;;;17.05;3.15;;;;;;;9.97;100.00;101817.59;5023438;28;20526;-84
2022/05/28 02:43:29;;;;;;;10.02;2.72;;;;;;;9.93;100.00;101819.28;4997468;28;20383;-83
2022/05/28 02:46:00;;;;;;;24.70;4.10;;;;;;;9.91;100.00;101823.63;5010636;28;20164;-84
2022/05/28 02:48:28;;;;;;;12.68;3.10;;;;;;;9.90;100.00;101816.56;4998527;28;20033;-84
2022/05/28 02:51:05;;;;;;;15.73;3.20;;;;;;;9.88;100.00;101819.16;4990712;28;20050;-84
2022/05/28 02:53:33;;;;;;;13.60;3.42;;;;;;;9.85;100.00;101813.84;5011155;28;20045;-84
2022/05/28 02:56:05;;;;;;;13.40;2.95;;;;;;;9.82;100.00;101819.03;5028728;28;20174;-84
2022/05/28 02:58:34;;;;;;;11.13;2.90;;;;;;;9.80;100.00;101814.59;4992772;28;20044;-84
2022/05/28 03:01:14;;;;;;;14.05;3.30;;;;;;;9.79;100.00;101812.81;4994692;28;20045;-84
2022/05/28 03:03:44;;;;;;;13.10;2.75;;;;;;;9.77;100.00;101815.41;5013776;28;20049;-85
2022/05/28 03:06:14;;;;;;;15.75;3.63;;;;;;;9.73;100.00;101814.47;5025484;28;20049;-84
2022/05/28 03:08:43;;;;;;;12.95;3.20;;;;;;;9.71;100.00;101821.41;5025524;28;20029;-85
2022/05/28 03:11:12;;;;;;;14.00;3.00;;;;;;;9.67;100.00;101819.56;5013869;28;20041;-84
2022/05/28 03:13:41;;;;;;;12.85;3.15;;;;;;;9.66;100.00;101817.81;5010807;28;20044;-84
2022/05/28 03:16:11;;;;;;;13.63;2.53;;;;;;;9.64;100.00;101829.13;5025307;28;20513;-84
2022/05/28 03:18:40;;;;;;;13.93;2.87;;;;;;;9.61;100.00;101811.56;5024094;28;20090;-84
2022/05/28 03:21:09;;;;;;;12.45;2.60;;;;;;;9.60;100.00;101809.75;4987544;28;20285;-84
2022/05/28 03:23:37;;;;;;;13.75;2.83;;;;;;;9.59;100.00;101822.91;5022139;28;20398;-84
2022/05/28 03:26:12;;;;;;;18.38;3.53;;;;;;;9.59;100.00;101822.91;5029057;28;20246;-84
2022/05/28 03:28:41;;;;;;;14.35;2.92;;;;;;;9.55;100.00;101822.81;5027091;28;20048;-84
2022/05/28 03:31:10;;;;;;;14.68;2.78;;;;;;;9.54;100.00;101812.25;4991280;28;20521;-84
2022/05/28 03:33:39;;;;;;;17.13;3.60;;;;;;;9.55;100.00;101824.56;4989181;28;20056;-84
2022/05/28 03:36:08;;;;;;;11.13;2.58;;;;;;;9.55;100.00;101830.72;5014945;28;20059;-83
2022/05/28 03:38:37;;;;;;;10.90;2.60;;;;;;;9.58;100.00;101824.63;5021266;28;20045;-84
2022/05/28 03:41:06;;;;;;;9.15;3.30;;;;;;;9.61;100.00;101826.47;5022755;28;20057;-84
2022/05/28 03:43:36;;;;;;;12.80;3.72;;;;;;;9.62;100.00;101831.75;5029224;28;20046;-84
2022/05/28 03:46:04;;;;;;;10.27;2.60;;;;;;;9.65;100.00;101834.44;5009472;28;20155;-83
2022/05/28 03:48:33;;;;;;;11.05;2.83;;;;;;;9.68;100.00;101831.91;5011650;28;20049;-84
2022/05/28 03:51:02;;;;;;;15.57;3.17;;;;;;;9.71;100.00;101821.41;4992099;28;20561;-83
2022/05/28 03:53:30;;;;;;;15.10;3.70;;;;;;;9.75;100.00;101828.56;5026329;28;20065;-84
2022/05/28 03:55:59;;;;;;;16.90;4.22;;;;;;;9.80;100.00;101827.75;4991499;28;20599;-83
2022/05/28 03:58:27;;;;;;;11.15;3.42;;;;;;;9.86;100.00;101825.25;5005994;28;20068;-84
2022/05/28 04:00:56;;;;;;;16.92;3.45;;;;;;;9.90;100.00;101837.63;4994959;28;20235;-84
2022/05/28 04:03:24;;;;;;;20.80;3.42;;;;;;;9.93;100.00;101832.44;4998949;28;20041;-83
2022/05/28 04:05:53;;;;;;;12.02;3.75;;;;;;;9.98;100.00;101835.16;4994580;28;20258;-84
2022/05/28 04:08:22;;;;;;;16.85;2.72;;;;;;;9.99;100.00;101839.56;5012760;28;20062;-84
2022/05/28 04:10:51;;;;;;;11.65;2.63;;;;;;;10.02;100.00;101831.72;5026442;28;20147;-83
2022/05/28 04:13:20;;;;;;;17.10;3.35;;;;;;;10.04;100.00;101832.69;5012958;28;20517;-83
2022/05/28 04:15:50;;;;;;;17.63;3.55;;;;;;;10.04;100.00;101838.81;5027406;28;20592;-83
2022/05/28 04:18:18;;;;;;;17.00;3.67;;;;;;;10.08;100.00;101847.69;4990729;28;20045;-85
2022/05/28 04:20:47;;;;;;;21.45;4.10;;;;;;;10.08;100.00;101853.81;5012072;28;20569;-85
2022/05/28 04:23:16;;;;;;;9.88;2.47;;;;;;;10.04;100.00;101856.38;5019592;28;20042;-85
2022/05/28 04:25:44;;;;;;;8.85;2.75;;;;;;;9.92;100.00;101872.78;4971624;28;20053;-85
2022/05/28 04:28:12;;;;;;;4.47;1.83;;;;;;;9.71;100.00;101865.28;4987479;28;20052;-85
2022/05/28 04:30:41;;;;;;;8.88;2.40;;;;;;;9.54;100.00;101864.88;4989672;28;20384;-84
2022/05/28 04:33:10;;;;;;;9.23;2.00;;;;;;;9.42;100.00;101870.75;4994110;28;20053;-84
2022/05/28 04:35:38;;;;;;;11.55;2.58;;;;;;;9.33;100.00;101866.16;4999574;28;20038;-86
2022/05/28 04:38:09;;;;;;;14.40;2.38;;;;;;;9.30;100.00;101876.59;4965739;28;20046;-83
2022/05/28 04:40:37;;;;;;;17.48;2.28;;;;;;;9.25;100.00;101857.19;4982275;28;20045;-84
2022/05/28 04:43:06;;;;;;;13.80;3.08;;;;;;;9.26;100.00;101861.59;4965512;28;20058;-83
2022/05/28 04:45:34;;;;;;;9.27;2.70;;;;;;;9.30;100.00;101855.56;4992286;28;20460;-84
2022/05/28 04:48:03;;;;;;;14.15;2.80;;;;;;;9.38;100.00;101868.03;4973979;28;20246;-83
2022/05/28 04:50:32;;;;;;;9.82;2.58;;;;;;;9.42;100.00;101859.34;5011036;28;20052;-83
2022/05/28 04:53:01;;;;;;;13.10;2.97;;;;;;;9.46;100.00;101862.06;4978588;28;20267;-83
2022/05/28 04:55:29;;;;;;;15.10;3.20;;;;;;;9.50;100.00;101868.31;4944325;28;20050;-83
2022/05/28 04:58:00;;;;;;;18.10;3.50;;;;;;;9.53;100.00;101855.22;4965847;28;20046;-84
2022/05/28 05:00:29;;;;;;;17.30;4.13;;;;;;;9.58;100.00;101872.00;4996457;28;20487;-84
2022/05/28 05:02:57;;;;;;;19.65;4.15;;;;;;;9.64;100.00;101877.44;4977060;28;20038;-84
2022/05/28 05:05:27;;;;;;;15.07;3.60;;;;;;;9.67;100.00;101877.47;5008567;28;20060;-83
2022/05/28 05:07:56;;;;;;;13.40;3.45;;;;;;;9.75;100.00;101875.03;4993752;28;20745;-83
2022/05/28 05:10:24;;;;;;;18.90;4.13;;;;;;;9.80;100.00;101873.38;5001924;28;20053;-83
2022/05/28 05:12:53;;;;;;;15.85;3.15;;;;;;;9.89;100.00;101875.34;4973808;28;20418;-84
2022/05/28 05:15:22;;;;;;;16.90;3.10;;;;;;;9.95;100.00;101886.00;4994449;28;20035;-84
2022/05/28 05:17:50;;;;;;;12.63;3.70;;;;;;;10.34;100.00;101882.50;4972300;28;20034;-84
2022/05/28 05:20:20;;;;;;;17.00;3.40;;;;;;;11.20;100.00;101884.13;5010740;28;20410;-84
2022/05/28 05:22:51;;;;;;;14.50;2.85;;;;;;;12.07;100.00;101881.06;4970048;28;20564;-83
2022/05/28 05:25:20;;;;;;;11.35;3.20;;;;;;;12.88;100.00;101889.09;5032290;28;20052;-83
2022/05/28 05:27:49;;;;;;;14.05;2.97;;;;;;;13.35;100.00;101886.03;5010557;28;20207;-83
2022/05/28 05:30:18;;;;;;;9.52;2.50;;;;;;;13.54;100.00;101879.13;5017802;28;20513;-84
2022/05/28 05:32:47;;;;;;;11.88;2.40;;;;;;;13.92;100.00;101883.78;5029167;28;20045;-83
2022/05/28 05:35:15;;;;;;;16.92;3.20;;;;;;;14.22;100.00;101879.53;5014136;28;20037;-85
2022/05/28 05:37:44;;;;;;;11.27;3.03;;;;;;;13.94;100.00;101892.63;4990790;28;20049;-85
2022/05/28 05:40:13;;;;;;;20.23;3.67;;;;;;;13.63;100.00;101886.25;5009888;28;20045;-84
2022/05/28 05:42:42;;;;;;;13.25;2.53;;;;;;;13.29;100.00;101892.97;4993808;28;20038;-83
2022/05/28 05:45:11;;;;;;;16.02;3.10;;;;;;;12.84;100.00;101896.09;5044015;28;20056;-84
2022/05/28 05:47:39;;;;;;;14.68;2.80;;;;;;;12.51;100.00;101901.00;5031431;28;20032;-83
2022/05/28 05:50:08;;;;;;;11.27;2.80;;;;;;;12.19;100.00;101910.31;4992887;28;20057;-83
2022/05/28 05:52:37;;;;;;;18.38;3.17;;;;;;;11.87;100.00;101912.44;5023204;28;20052;-83
2022/05/28 05:55:14;;;;;;;9.93;2.72;;;;;;;11.65;100.00;101922.69;4969321;28;20502;-84
2022/05/28 05:57:43;;;;;;;13.88;2.60;;;;;;;11.46;100.00;101923.25;5004960;28;20037;-83
2022/05/28 06:00:12;;;;;;;10.95;3.10;;;;;;;11.32;100.00;101917.72;4997950;28;20049;-84
2022/05/28 06:02:40;;;;;;;12.30;3.70;;;;;;;11.21;100.00;101920.19;5037339;28;20394;-84
2022/05/28 06:05:09;;;;;;;11.45;3.10;;;;;;;11.15;100.00;101920.06;5015219;28;20044;-84
2022/05/28 06:07:38;;;;;;;16.60;3.45;;;;;;;11.08;100.00;101921.72;5003979;28;20061;-84
2022/05/28 06:10:09;;;;;;;14.23;2.63;;;;;;;11.02;100.00;101918.97;4989984;28;20049;-84
2022/05/28 06:12:38;;;;;;;;;;;;;;;10.99;100.00;101921.56;5020117;28;20046;-83
2022/05/28 06:15:07;;;;;;;13.95;3.53;;;;;;;10.93;100.00;101914.41;5004001;28;19929;-83
2022/05/28 06:17:36;;;;;;;13.57;3.20;;;;;;;10.87;100.00;101929.25;5003989;28;20041;-84
2022/05/28 06:20:08;;;;;;;18.63;3.92;;;;;;;10.87;100.00;101919.56;5012427;28;20088;-84
2022/05/28 06:22:36;;;;;;;14.20;3.30;;;;;;;10.89;100.00;101923.13;5007987;28;20046;-84
2022/05/28 06:25:05;;;;;;;12.45;3.00;;;;;;;10.90;100.00;101927.53;5003709;28;20072;-84
2022/05/28 06:27:34;;;;;;;16.33;3.33;;;;;;;10.89;100.00;101923.13;5036902;28;20045;-84
2022/05/28 06:30:03;;;;;;;20.23;4.30;;;;;;;10.92;100.00;101924.94;4997793;28;20049;-83
2022/05/28 06:32:31;;;;;;;11.80;3.08;;;;;;;10.93;100.00;101924.06;4999789;28;20042;-84
2022/05/28 06:35:00;;;;;;;14.57;3.47;;;;;;;11.02;100.00;101931.25;5016002;28;20356;-84
2022/05/28 06:37:29;;;;;;;18.50;3.70;;;;;;;11.12;100.00;101922.66;5021747;28;20040;-84
2022/05/28 06:39:57;;;;;;;21.15;4.15;;;;;;;11.31;100.00;101937.97;5019623;28;20033;-83
2022/05/28 06:42:26;;;;;;;17.52;3.40;;;;;;;11.52;100.00;101926.00;5021270;28;20052;-83
2022/05/28 06:44:55;;;;;;;18.33;3.50;;;;;;;11.85;100.00;101935.31;4998588;28;20163;-83
2022/05/28 06:47:24;;;;;;;9.48;3.00;;;;;;;12.09;100.00;101940.97;5036083;28;20048;-84
2022/05/28 06:52:39;;;;;;;10.90;2.80;;;;;;;12.48;100.00;101933.59;4999069;28;20032;-84
2022/05/28 06:55:08;;;;;;;12.15;3.88;;;;;;;12.58;100.00;101924.88;5047936;28;20529;-84
2022/05/28 06:57:37;;;;;;;13.80;3.05;;;;;;;12.66;100.00;101936.47;5008702;28;20401;-84
2022/05/28 07:00:06;;;;;;;16.35;3.75;;;;;;;12.80;99.93;101925.16;4984723;28;20556;-84
2022/05/28 07:02:34;;;;;;;14.23;3.22;;;;;;;12.77;98.98;101949.78;5011881;28;20394;-84
2022/05/28 07:05:03;;;;;;;15.38;3.50;;;;;;;12.70;98.29;101936.47;5017396;28;20045;-84
2022/05/28 07:07:32;;;;;;;18.15;3.13;;;;;;;12.57;97.48;101941.66;5005570;28;20034;-83
2022/05/28 07:10:00;;;;;;;19.45;3.33;;;;;;;12.42;98.19;101925.56;5022914;28;20045;-85
2022/05/28 07:12:29;;;;;;;15.80;2.90;;;;;;;12.32;97.61;101950.97;5022613;28;20414;-84
2022/05/28 07:14:58;;;;;;;16.17;3.78;;;;;;;12.25;98.00;101938.59;4997463;28;20341;-85
2022/05/28 07:17:26;;;;;;;12.38;3.53;;;;;;;12.31;98.85;101932.50;5043727;28;20523;-85
2022/05/28 07:19:54;;;;;;;14.20;3.50;;;;;;;12.38;97.66;101940.53;4987966;28;20075;-85
2022/05/28 07:22:23;;;;;;;21.98;3.97;;;;;;;12.51;97.92;101938.03;5014985;28;20033;-84
2022/05/28 07:24:51;;;;;;;14.52;3.97;;;;;;;12.56;97.87;101934.56;5025147;28;20049;-83
2022/05/28 07:27:20;;;;;;;15.73;3.22;;;;;;;12.50;97.26;101941.53;5016528;28;20499;-84
2022/05/28 07:29:48;;;;;;;15.48;3.85;;;;;;;12.48;97.72;101945.03;5006923;28;20041;-84
2022/05/28 07:32:17;;;;;;;10.90;3.00;;;;;;;12.58;97.23;101947.81;4986367;28;20033;-83
2022/05/28 07:34:45;;;;;;;19.23;4.30;;;;;;;12.78;97.21;101935.72;5016191;28;20041;-85
2022/05/28 07:37:17;;;;;;;15.55;2.95;;;;;;;12.78;93.29;101966.53;5034016;28;20049;-84
2022/05/28 07:39:46;;;;;;;10.45;3.45;;;;;;;12.80;93.76;101931.31;5012184;28;20045;-85
2022/05/28 07:42:14;;;;;;;12.15;2.45;;;;;;;12.85;93.30;101934.94;5024776;28;20052;-83
2022/05/28 07:44:42;;;;;;;11.60;3.40;;;;;;;12.89;93.86;101935.81;5038614;28;20060;-84
2022/05/28 07:47:11;;;;;;;15.15;2.63;;;;;;;12.85;93.90;101934.94;4984446;28;20525;-83
2022/05/28 07:49:40;;;;;;;10.27;2.85;;;;;;;12.79;94.03;101950.69;5012817;28;20048;-84
2022/05/28 07:52:08;;;;;;;14.68;3.20;;;;;;;12.70;94.31;101950.59;5000449;28;20045;-84
2022/05/28 07:54:37;;;;;;;14.30;3.40;;;;;;;12.59;94.94;101958.41;5004626;28;20049;-84
2022/05/28 07:57:06;;;;;;;19.80;3.33;;;;;;;12.55;95.43;101958.34;5012895;28;20795;-84
2022/05/28 07:59:36;;;;;;;15.65;3.75;;;;;;;12.66;96.50;101954.06;5013761;28;20034;-84
2022/05/28 08:02:05;;;;;;;15.35;2.67;;;;;;;12.79;96.52;101961.28;4985317;28;22369;-84
2022/05/28 08:04:36;;;;;;;13.95;3.35;;;;;;;12.82;96.25;101956.03;5012258;28;20033;-85
2022/05/28 08:07:05;;;;;;;14.98;3.50;;;;;;;12.90;95.75;101969.34;4995375;28;20283;-85
2022/05/28 08:09:34;;;;;;;15.07;3.38;;;;;;;12.96;93.58;101952.66;5019811;28;20037;-84
2022/05/28 08:12:03;;;;;;;11.48;2.80;;;;;;;13.00;92.64;101952.69;5011250;28;20621;-85
2022/05/28 08:14:31;;;;;;;13.75;3.45;;;;;;;13.14;94.17;101960.81;5002173;28;20048;-85
2022/05/28 08:17:00;;;;;;;17.60;3.70;;;;;;;13.26;94.40;101950.31;4981504;28;20443;-84
2022/05/28 08:19:31;;;;;;;17.63;3.55;;;;;;;13.33;94.02;101961.03;5004482;28;20045;-85
2022/05/28 08:24:52;;;;;;;16.42;3.30;;;;;;;13.14;91.03;101976.69;5039897;28;20546;-90
2022/05/28 08:27:20;;;;;;;13.90;3.00;;;;;;;13.15;89.66;101961.69;5017502;28;20048;-88
2022/05/28 08:29:49;;;;;;;14.15;3.25;;;;;;;13.15;90.62;101973.16;5022453;28;20128;-89
2022/05/28 08:32:18;;;;;;;12.20;3.00;;;;;;;13.25;90.19;101963.53;5013805;28;20048;-88
2022/05/28 08:34:46;;;;;;;11.23;2.90;;;;;;;13.24;88.98;101975.88;5006825;28;20056;-89
2022/05/28 08:37:15;;;;;;;13.27;3.33;;;;;;;13.13;87.00;101977.53;5008920;28;20049;-89
2022/05/28 08:39:43;;;;;;;9.80;2.63;;;;;;;13.18;87.08;101981.13;4998135;28;20041;-88
2022/05/28 08:42:14;;;;;;;12.57;3.03;;;;;;;13.24;86.49;101972.38;4996928;28;20056;-88
2022/05/28 08:44:42;;;;;;;9.00;3.10;;;;;;;13.13;85.65;101993.41;5019149;28;20048;-88
2022/05/28 08:47:21;;;;;;;11.48;3.58;;;;;;;13.09;86.04;101977.50;5004424;28;20049;-88
2022/05/28 08:49:51;;;;;;;13.13;3.47;;;;;;;13.15;86.80;101991.66;5000050;28;20045;-88
2022/05/28 08:52:33;;;;;;;10.32;2.70;;;;;;;13.17;86.24;101981.97;5023348;28;20026;-88
2022/05/28 08:55:08;;;;;;;18.85;3.13;;;;;;;13.12;86.39;101999.59;5022216;28;20162;-86
2022/05/28 08:57:57;;;;;;;12.65;3.28;;;;;;;13.07;87.39;102001.28;5021964;28;20084;-86
2022/05/28 09:00:29;;;;;;;10.65;3.33;;;;;;;12.92;88.14;101985.25;5028158;28;20052;-86
2022/05/28 09:03:22;;;;;;;18.70;3.25;;;;;;;12.82;90.06;101995.72;5011571;28;20033;-86
2022/05/28 09:06:11;;;;;;;10.43;3.10;;;;;;;12.76;89.90;101998.28;4980087;28;20049;-86
2022/05/28 09:08:43;;;;;;;15.37;2.60;;;;;;;12.72;90.30;102012.34;5008838;28;20052;-86
2022/05/28 09:11:25;;;;;;;10.63;2.47;;;;;;;12.74;91.30;101996.47;5044526;28;20053;-86
2022/05/28 09:13:54;;;;;;;12.48;2.58;;;;;;;12.79;88.99;102000.06;5010126;28;20053;-86
2022/05/28 09:16:34;;;;;;;13.20;3.65;;;;;;;12.86;88.70;102002.81;5012212;28;20060;-85
2022/05/28 09:19:13;;;;;;;13.75;3.03;;;;;;;12.99;88.86;101993.28;5007092;28;20046;-85
2022/05/28 09:21:46;;;;;;;15.88;3.42;;;;;;;13.17;88.76;101992.56;5015163;28;20048;-86
2022/05/28 09:24:25;;;;;;;7.80;2.65;;;;;;;13.25;88.26;101995.28;4998320;28;20486;-86
2022/05/28 09:26:59;;;;;;;16.05;3.33;;;;;;;13.31;88.67;101990.13;5016842;28;20513;-85
2022/05/28 09:29:46;;;;;;;12.25;2.83;;;;;;;13.32;87.76;102004.25;5025929;28;20053;-86
2022/05/28 09:32:36;;;;;;;14.40;3.08;;;;;;;13.26;87.93;102011.19;5047125;28;20056;-88
2022/05/28 09:35:26;;;;;;;19.05;3.30;;;;;;;13.20;87.38;102004.97;5013526;28;20040;-86
2022/05/28 09:38:16;;;;;;;16.10;2.90;;;;;;;13.14;86.66;102005.78;4997950;28;20045;-87
2022/05/28 09:40:54;;;;;;;14.23;2.80;;;;;;;12.99;85.58;102005.63;5009706;28;20044;-87
2022/05/28 09:43:35;;;;;;;12.02;2.28;;;;;;;12.91;84.93;102007.25;5028720;28;20705;-86
2022/05/28 09:46:27;;;;;;;11.55;3.17;;;;;;;12.93;84.65;102008.16;5028120;28;20348;-87
2022/05/28 09:49:24;;;;;;;13.57;2.08;;;;;;;13.03;83.15;102003.00;4997480;28;20055;-86
2022/05/28 09:52:06;;;;;;;10.98;2.80;;;;;;;13.06;84.33;102016.28;5010625;28;20025;-86
2022/05/28 09:54:36;;;;;;;11.82;2.55;;;;;;;13.09;83.01;102007.50;4992771;28;20041;-87
2022/05/28 09:57:19;;;;;;;12.63;2.33;;;;;;;13.20;79.00;102026.16;5019368;28;20052;-85
2022/05/28 09:59:57;;;;;;;7.78;2.15;;;;;;;13.25;79.68;102016.47;5028945;28;20414;-87
2022/05/28 10:02:29;;;;;;;11.00;2.05;;;;;;;13.26;79.62;102018.25;5054489;28;20048;-87
2022/05/28 10:05:14;;;;;;;14.60;2.58;;;;;;;13.30;79.31;102004.22;5026357;28;20247;-87
2022/05/28 10:07:48;;;;;;;9.52;2.92;;;;;;;13.28;80.95;102011.22;5007758;28;20048;-89
2022/05/28 10:11:38;;;;;;;14.70;3.92;;;;;;;13.23;80.07;102003.25;4920743;28;20408;-87
2022/05/28 10:14:33;;;;;;;8.48;2.25;;;;;;;13.17;80.46;102013.75;4903255;28;20092;-83
2022/05/28 10:17:03;;;;;;;8.63;2.22;;;;;;;13.18;79.33;102014.66;4947951;28;20162;-87
2022/05/28 10:19:39;;;;;;;10.88;2.88;;;;;;;13.35;78.83;102009.56;4912101;29;20035;-88
2022/05/28 10:22:20;;;;;;;9.18;2.00;;;;;;;13.49;72.42;102009.69;4911111;28;20078;-87
2022/05/28 10:24:55;;;;;;;7.30;1.73;;;;;;;13.59;76.60;102001.88;4916261;28;20053;-87
2022/05/28 10:27:33;;;;;;;9.75;2.92;;;;;;;13.72;76.45;102004.63;4914751;28;20035;-87
2022/05/28 10:30:07;;;;;;;10.27;2.72;;;;;;;13.72;73.73;102013.44;5016437;28;20033;-87
2022/05/28 10:32:48;;;;;;;6.70;2.58;;;;;;;13.76;73.70;102012.63;5012367;28;20042;-88
2022/05/28 10:35:27;;;;;;;;;;;;;;;13.64;70.52;102016.03;5011947;28;20044;-88
2022/05/28 10:38:25;;;;;;;10.93;2.28;;;;;;;13.76;74.16;102031.16;5012060;28;19929;-88
2022/05/28 10:41:01;;;;;;;16.70;3.08;;;;;;;13.92;76.28;102008.31;5008148;28;20241;-87
2022/05/28 10:43:38;;;;;;;10.18;2.42;;;;;;;14.07;77.32;101999.59;5025532;28;20123;-88
2022/05/28 10:46:34;;;;;;;12.75;2.53;;;;;;;14.24;78.66;102007.66;5028706;28;20249;-85
2022/05/28 10:49:21;;;;;;;9.88;2.15;;;;;;;14.09;75.03;102018.16;5047528;28;20179;-83
2022/05/28 10:52:24;;;;;;;9.57;2.40;;;;;;;13.75;76.66;102024.06;5012433;28;20402;-84
2022/05/28 10:55:21;;;;;;;9.40;2.95;;;;;;;13.59;78.34;102012.47;4995459;28;20061;-83
2022/05/28 10:58:05;;;;;;;13.60;2.67;;;;;;;13.67;77.09;102008.97;5013654;28;20059;-82
2022/05/28 11:00:52;;;;;;;7.82;2.38;;;;;;;13.89;77.30;102008.28;5025851;28;20021;-83
2022/05/28 11:03:50;;;;;;;13.20;2.70;;;;;;;14.18;77.18;102010.28;5034712;28;20144;-82
2022/05/28 11:06:44;;;;;;;9.45;2.50;;;;;;;14.33;74.77;102007.72;5019105;28;20314;-83
2022/05/28 11:09:42;;;;;;;15.48;2.42;;;;;;;14.54;73.65;102009.63;5005699;28;20053;-82
2022/05/28 11:12:29;;;;;;;13.07;2.40;;;;;;;14.61;72.53;102011.47;5014286;28;20045;-82
2022/05/28 11:15:29;;;;;;;12.40;2.65;;;;;;;14.52;71.34;102015.81;4999664;28;20040;-84
2022/05/28 11:18:31;;;;;;;8.70;2.17;;;;;;;14.55;70.79;102010.50;5014484;28;20025;-82
2022/05/28 11:21:22;;;;;;;8.27;2.47;;;;;;;14.51;72.32;102009.59;5031537;28;20052;-82
2022/05/28 11:24:23;;;;;;;9.25;2.50;;;;;;;14.15;71.19;102010.25;5009752;28;20059;-83
2022/05/28 11:27:03;;;;;;;11.07;2.78;;;;;;;13.89;73.73;102018.00;5019227;28;20049;-81
2022/05/28 11:29:47;;;;;;;9.73;2.55;;;;;;;13.74;73.41;102011.72;5023738;28;20399;-83
2022/05/28 11:32:44;;;;;;;9.23;2.10;;;;;;;13.71;71.95;102011.69;5021090;28;20932;-84
2022/05/28 11:35:33;;;;;;;5.15;1.73;;;;;;;13.63;68.14;102019.56;5024964;28;20163;-83
2022/05/28 11:38:40;;;;;;;8.10;1.95;;;;;;;13.80;69.49;102008.22;5009787;28;20072;-85
2022/05/28 11:44:57;;;;;;;10.25;2.28;;;;;;;14.46;71.21;101994.53;5059321;23;20051;-84
2022/05/28 11:47:41;;;;;;;7.53;2.10;;;;;;;14.51;68.28;102004.28;4931033;28;20043;-83
2022/05/28 11:54:07;;;;;;;14.80;2.47;;;;;;;14.28;67.50;102006.81;4939138;28;20544;-83
2022/05/28 11:56:37;;;;;;;7.65;2.22;;;;;;;14.12;70.56;101999.63;4895542;28;20051;-83
2022/05/28 11:59:17;;;;;;;11.90;2.47;;;;;;;14.02;70.82;101999.53;4955361;28;20461;-82
2022/05/28 12:01:53;;;;;;;7.57;2.00;;;;;;;13.89;72.17;102007.41;4929046;28;20280;-85